sensor_id;sensor_type;location;lat;lon;timestamp;pressure;altitude;pressure_sealevel;temperature;humidity
31088;BME280;17745;55.914;37.554;2023-04-27T00:00:42;98400.00;;;13.37;55.45
31088;BME280;17745;55.914;37.554;2023-04-27T00:03:15;98399.69;;;13.39;55.45
31088;BME280;17745;55.914;37.554;2023-04-27T00:05:48;98401.25;;;13.40;55.47
31088;BME280;17745;55.914;37.554;2023-04-27T00:08:22;98400.19;;;13.41;55.44
31088;BME280;17745;55.914;37.554;2023-04-27T00:11:04;98411.41;;;13.38;55.41
31088;BME280;17745;55.914;37.554;2023-04-27T00:13:46;98408.53;;;13.34;55.42
31088;BME280;17745;55.914;37.554;2023-04-27T00:16:24;98409.31;;;13.35;55.47
31088;BME280;17745;55.914;37.554;2023-04-27T00:18:57;98411.50;;;13.33;55.48
31088;BME280;17745;55.914;37.554;2023-04-27T00:21:26;98411.00;;;13.30;55.49
31088;BME280;17745;55.914;37.554;2023-04-27T00:23:58;98412.84;;;13.30;55.50
31088;BME280;17745;55.914;37.554;2023-04-27T00:26:32;98410.78;;;13.27;55.53
31088;BME280;17745;55.914;37.554;2023-04-27T00:29:10;98417.97;;;13.26;55.61
31088;BME280;17745;55.914;37.554;2023-04-27T00:31:42;98410.56;;;13.23;55.59
31088;BME280;17745;55.914;37.554;2023-04-27T00:34:18;98413.22;;;13.23;55.59
31088;BME280;17745;55.914;37.554;2023-04-27T00:36:48;98417.75;;;13.23;55.57
31088;BME280;17745;55.914;37.554;2023-04-27T00:39:24;98419.34;;;13.24;55.50
31088;BME280;17745;55.914;37.554;2023-04-27T00:41:58;98420.69;;;13.21;55.45
31088;BME280;17745;55.914;37.554;2023-04-27T00:44:29;98420.09;;;13.24;55.39
31088;BME280;17745;55.914;37.554;2023-04-27T00:47:04;98424.66;;;13.24;55.38
31088;BME280;17745;55.914;37.554;2023-04-27T00:49:40;98429.16;;;13.23;55.34
31088;BME280;17745;55.914;37.554;2023-04-27T00:52:12;98415.09;;;13.23;55.32
31088;BME280;17745;55.914;37.554;2023-04-27T00:54:44;98432.13;;;13.22;55.29
31088;BME280;17745;55.914;37.554;2023-04-27T00:57:13;98428.47;;;13.18;55.38
31088;BME280;17745;55.914;37.554;2023-04-27T00:59:46;98430.09;;;13.13;55.43
31088;BME280;17745;55.914;37.554;2023-04-27T01:02:17;98433.84;;;13.12;55.46
31088;BME280;17745;55.914;37.554;2023-04-27T01:04:49;98425.66;;;13.09;55.47
31088;BME280;17745;55.914;37.554;2023-04-27T01:07:24;98429.69;;;13.06;55.46
31088;BME280;17745;55.914;37.554;2023-04-27T01:09:53;98435.25;;;13.05;55.48
31088;BME280;17745;55.914;37.554;2023-04-27T01:12:22;98432.69;;;12.99;55.55
31088;BME280;17745;55.914;37.554;2023-04-27T01:14:54;98437.00;;;12.95;55.59
31088;BME280;17745;55.914;37.554;2023-04-27T01:17:27;98434.12;;;12.92;55.65
31088;BME280;17745;55.914;37.554;2023-04-27T01:19:56;98434.94;;;12.92;55.76
31088;BME280;17745;55.914;37.554;2023-04-27T01:22:25;98436.78;;;12.92;55.73
31088;BME280;17745;55.914;37.554;2023-04-27T01:24:55;98431.78;;;12.90;55.75
31088;BME280;17745;55.914;37.554;2023-04-27T01:27:26;98436.78;;;12.92;55.80
31088;BME280;17745;55.914;37.554;2023-04-27T01:29:55;98432.78;;;12.94;55.71
31088;BME280;17745;55.914;37.554;2023-04-27T01:32:30;98427.94;;;12.96;55.61
31088;BME280;17745;55.914;37.554;2023-04-27T01:35:01;98432.09;;;13.02;55.51
31088;BME280;17745;55.914;37.554;2023-04-27T01:37:36;98424.94;;;13.03;55.38
31088;BME280;17745;55.914;37.554;2023-04-27T01:40:11;98414.31;;;13.03;55.26
31088;BME280;17745;55.914;37.554;2023-04-27T01:42:46;98426.53;;;13.04;55.21
31088;BME280;17745;55.914;37.554;2023-04-27T01:45:18;98419.91;;;13.01;55.21
31088;BME280;17745;55.914;37.554;2023-04-27T01:47:50;98421.28;;;12.99;55.24
31088;BME280;17745;55.914;37.554;2023-04-27T01:50:21;98425.06;;;12.93;55.28
31088;BME280;17745;55.914;37.554;2023-04-27T01:53:00;98421.72;;;12.87;55.39
31088;BME280;17745;55.914;37.554;2023-04-27T01:55:41;98428.16;;;12.81;55.49
31088;BME280;17745;55.914;37.554;2023-04-27T01:58:13;98435.34;;;12.80;55.57
31088;BME280;17745;55.914;37.554;2023-04-27T02:00:45;98446.53;;;12.77;55.56
31088;BME280;17745;55.914;37.554;2023-04-27T02:03:34;98449.75;;;12.74;55.63
31088;BME280;17745;55.914;37.554;2023-04-27T02:06:09;98451.13;;;12.71;55.67
31088;BME280;17745;55.914;37.554;2023-04-27T02:08:39;98448.41;;;12.77;55.69
31088;BME280;17745;55.914;37.554;2023-04-27T02:11:15;98444.09;;;12.81;55.67
31088;BME280;17745;55.914;37.554;2023-04-27T02:13:46;98443.47;;;12.89;55.60
31088;BME280;17745;55.914;37.554;2023-04-27T02:16:20;98441.88;;;12.88;55.56
31088;BME280;17745;55.914;37.554;2023-04-27T02:18:52;98447.19;;;12.88;55.60
31088;BME280;17745;55.914;37.554;2023-04-27T02:21:23;98442.38;;;12.90;55.60
31088;BME280;17745;55.914;37.554;2023-04-27T02:23:56;98452.13;;;12.95;55.57
31088;BME280;17745;55.914;37.554;2023-04-27T02:26:30;98443.03;;;13.01;55.51
31088;BME280;17745;55.914;37.554;2023-04-27T02:29:03;98455.97;;;13.08;55.42
31088;BME280;17745;55.914;37.554;2023-04-27T02:31:41;98447.13;;;13.12;55.36
31088;BME280;17745;55.914;37.554;2023-04-27T02:34:15;98451.59;;;13.17;55.25
31088;BME280;17745;55.914;37.554;2023-04-27T02:36:49;98464.28;;;13.20;55.22
31088;BME280;17745;55.914;37.554;2023-04-27T02:39:26;98457.03;;;13.26;55.19
31088;BME280;17745;55.914;37.554;2023-04-27T02:42:02;98464.94;;;13.31;55.11
31088;BME280;17745;55.914;37.554;2023-04-27T02:44:37;98466.97;;;13.39;54.92
31088;BME280;17745;55.914;37.554;2023-04-27T02:47:11;98466.97;;;13.39;54.84
31088;BME280;17745;55.914;37.554;2023-04-27T02:49:43;98469.56;;;13.44;54.80
31088;BME280;17745;55.914;37.554;2023-04-27T02:52:28;98470.56;;;13.49;54.77
31088;BME280;17745;55.914;37.554;2023-04-27T02:55:05;98477.09;;;13.56;54.68
31088;BME280;17745;55.914;37.554;2023-04-27T02:58:05;98484.53;;;13.73;54.58
31088;BME280;17745;55.914;37.554;2023-04-27T03:00:38;98490.16;;;13.72;54.56
31088;BME280;17745;55.914;37.554;2023-04-27T03:03:15;98486.91;;;13.75;54.56
31088;BME280;17745;55.914;37.554;2023-04-27T03:05:51;98487.91;;;13.79;54.48
31088;BME280;17745;55.914;37.554;2023-04-27T03:08:27;98496.50;;;13.90;54.34
31088;BME280;17745;55.914;37.554;2023-04-27T03:11:14;98493.69;;;14.00;54.18
31088;BME280;17745;55.914;37.554;2023-04-27T03:13:51;98492.50;;;14.07;53.99
31088;BME280;17745;55.914;37.554;2023-04-27T03:16:39;98489.84;;;14.07;53.81
31088;BME280;17745;55.914;37.554;2023-04-27T03:19:13;98503.66;;;14.09;53.78
31088;BME280;17745;55.914;37.554;2023-04-27T03:21:50;98504.03;;;14.16;53.75
31088;BME280;17745;55.914;37.554;2023-04-27T03:24:26;98504.25;;;14.20;53.58
31088;BME280;17745;55.914;37.554;2023-04-27T03:27:37;98504.97;;;14.25;53.61
31088;BME280;17745;55.914;37.554;2023-04-27T03:30:14;98517.59;;;14.34;53.54
31088;BME280;17745;55.914;37.554;2023-04-27T03:32:52;98511.59;;;14.42;53.50
31088;BME280;17745;55.914;37.554;2023-04-27T03:35:28;98517.03;;;14.51;53.40
31088;BME280;17745;55.914;37.554;2023-04-27T03:41:28;98522.53;;;14.68;53.11
31088;BME280;17745;55.914;37.554;2023-04-27T03:47:41;98520.00;;;14.77;52.76
31088;BME280;17745;55.914;37.554;2023-04-27T03:50:15;98521.09;;;14.76;52.85
31088;BME280;17745;55.914;37.554;2023-04-27T03:52:58;98518.91;;;14.78;52.98
31088;BME280;17745;55.914;37.554;2023-04-27T03:55:39;98522.16;;;14.89;52.94
31088;BME280;17745;55.914;37.554;2023-04-27T03:58:14;98530.66;;;15.05;52.91
31088;BME280;17745;55.914;37.554;2023-04-27T04:00:55;98526.19;;;15.14;52.74
31088;BME280;17745;55.914;37.554;2023-04-27T04:03:39;98527.66;;;15.21;52.58
31088;BME280;17745;55.914;37.554;2023-04-27T04:06:12;98533.84;;;15.30;52.47
31088;BME280;17745;55.914;37.554;2023-04-27T04:08:53;98537.16;;;15.50;52.42
31088;BME280;17745;55.914;37.554;2023-04-27T04:11:47;98529.84;;;15.78;51.90
31088;BME280;17745;55.914;37.554;2023-04-27T04:14:18;98533.69;;;16.09;51.26
31088;BME280;17745;55.914;37.554;2023-04-27T04:16:54;98538.81;;;16.28;51.23
31088;BME280;17745;55.914;37.554;2023-04-27T04:19:39;98546.72;;;16.42;50.96
31088;BME280;17745;55.914;37.554;2023-04-27T04:22:20;98541.94;;;16.62;50.46
31088;BME280;17745;55.914;37.554;2023-04-27T04:25:09;98537.59;;;16.75;50.48
31088;BME280;17745;55.914;37.554;2023-04-27T04:27:43;98535.44;;;16.85;50.20
31088;BME280;17745;55.914;37.554;2023-04-27T04:30:38;98542.03;;;16.97;50.16
31088;BME280;17745;55.914;37.554;2023-04-27T04:33:23;98544.31;;;17.12;49.87
31088;BME280;17745;55.914;37.554;2023-04-27T04:35:57;98546.69;;;17.23;50.02
31088;BME280;17745;55.914;37.554;2023-04-27T04:38:29;98549.06;;;17.42;49.69
31088;BME280;17745;55.914;37.554;2023-04-27T04:41:00;98549.38;;;17.58;49.46
31088;BME280;17745;55.914;37.554;2023-04-27T04:43:36;98543.88;;;17.72;49.39
31088;BME280;17745;55.914;37.554;2023-04-27T04:46:08;98539.78;;;17.83;49.10
31088;BME280;17745;55.914;37.554;2023-04-27T04:48:39;98543.56;;;17.91;49.10
31088;BME280;17745;55.914;37.554;2023-04-27T05:04:40;98551.53;;;19.34;47.17
31088;BME280;17745;55.914;37.554;2023-04-27T05:07:15;98551.53;;;19.34;47.17
31088;BME280;17745;55.914;37.554;2023-04-27T05:09:46;98550.44;;;18.96;47.72
31088;BME280;17745;55.914;37.554;2023-04-27T05:12:36;98553.09;;;19.05;47.51
31088;BME280;17745;55.914;37.554;2023-04-27T05:15:20;98555.09;;;19.17;46.77
31088;BME280;17745;55.914;37.554;2023-04-27T05:18:08;98563.53;;;19.28;46.47
31088;BME280;17745;55.914;37.554;2023-04-27T05:20:51;98559.22;;;19.36;46.40
31088;BME280;17745;55.914;37.554;2023-04-27T05:23:24;98559.09;;;19.53;46.49
31088;BME280;17745;55.914;37.554;2023-04-27T05:29:20;98559.03;;;19.62;45.71
31088;BME280;17745;55.914;37.554;2023-04-27T05:32:49;98566.19;;;19.58;45.89
31088;BME280;17745;55.914;37.554;2023-04-27T05:35:21;98568.19;;;19.61;45.18
31088;BME280;17745;55.914;37.554;2023-04-27T05:38:09;98563.44;;;19.67;45.34
31088;BME280;17745;55.914;37.554;2023-04-27T05:41:07;98567.47;;;19.73;44.34
31088;BME280;17745;55.914;37.554;2023-04-27T05:43:52;98564.03;;;19.85;43.60
31088;BME280;17745;55.914;37.554;2023-04-27T05:46:32;98564.00;;;19.94;43.71
31088;BME280;17745;55.914;37.554;2023-04-27T05:49:19;98570.47;;;20.14;43.47
31088;BME280;17745;55.914;37.554;2023-04-27T05:52:02;98564.22;;;20.35;42.46
31088;BME280;17745;55.914;37.554;2023-04-27T05:58:13;98563.69;;;20.41;41.53
31088;BME280;17745;55.914;37.554;2023-04-27T06:01:25;98559.31;;;20.49;41.18
31088;BME280;17745;55.914;37.554;2023-04-27T06:04:15;98558.06;;;20.59;41.52
31088;BME280;17745;55.914;37.554;2023-04-27T06:07:36;98557.53;;;20.66;40.44
31088;BME280;17745;55.914;37.554;2023-04-27T06:13:59;98563.25;;;20.52;40.27
31088;BME280;17745;55.914;37.554;2023-04-27T06:17:17;98551.81;;;20.67;39.84
31088;BME280;17745;55.914;37.554;2023-04-27T06:19:54;98558.00;;;20.80;39.75
31088;BME280;17745;55.914;37.554;2023-04-27T06:22:56;98549.25;;;20.83;39.37
31088;BME280;17745;55.914;37.554;2023-04-27T06:25:41;98551.97;;;20.83;38.60
31088;BME280;17745;55.914;37.554;2023-04-27T06:28:19;98550.16;;;20.75;38.73
31088;BME280;17745;55.914;37.554;2023-04-27T06:31:07;98554.50;;;20.67;38.54
31088;BME280;17745;55.914;37.554;2023-04-27T06:33:54;98565.03;;;20.73;38.29
31088;BME280;17745;55.914;37.554;2023-04-27T06:36:59;98572.56;;;20.79;38.60
31088;BME280;17745;55.914;37.554;2023-04-27T06:39:39;98568.53;;;20.98;38.48
31088;BME280;17745;55.914;37.554;2023-04-27T06:42:12;98574.69;;;21.11;38.29
31088;BME280;17745;55.914;37.554;2023-04-27T06:45:12;98575.69;;;21.19;38.16
31088;BME280;17745;55.914;37.554;2023-04-27T06:48:12;98572.53;;;21.29;37.84
31088;BME280;17745;55.914;37.554;2023-04-27T06:50:48;98570.84;;;21.37;37.71
31088;BME280;17745;55.914;37.554;2023-04-27T06:56:19;98568.00;;;21.46;37.66
31088;BME280;17745;55.914;37.554;2023-04-27T06:58:48;98579.66;;;21.50;37.22
31088;BME280;17745;55.914;37.554;2023-04-27T07:01:36;98581.97;;;21.35;36.50
31088;BME280;17745;55.914;37.554;2023-04-27T07:07:35;98582.63;;;21.32;36.24
31088;BME280;17745;55.914;37.554;2023-04-27T07:10:16;98575.66;;;21.43;35.80
31088;BME280;17745;55.914;37.554;2023-04-27T07:13:30;98578.44;;;21.47;35.67
31088;BME280;17745;55.914;37.554;2023-04-27T07:16:16;98579.19;;;21.60;35.65
31088;BME280;17745;55.914;37.554;2023-04-27T07:19:02;98574.38;;;21.66;35.27
31088;BME280;17745;55.914;37.554;2023-04-27T07:21:45;98574.75;;;21.80;35.03
31088;BME280;17745;55.914;37.554;2023-04-27T07:24:34;98568.25;;;21.81;35.17
31088;BME280;17745;55.914;37.554;2023-04-27T07:27:17;98575.50;;;21.93;34.79
31088;BME280;17745;55.914;37.554;2023-04-27T07:30:14;98571.62;;;22.07;34.83
31088;BME280;17745;55.914;37.554;2023-04-27T07:32:59;98572.09;;;22.25;34.40
31088;BME280;17745;55.914;37.554;2023-04-27T07:36:06;98576.25;;;22.38;34.08
31088;BME280;17745;55.914;37.554;2023-04-27T07:38:54;98576.88;;;22.32;34.01
31088;BME280;17745;55.914;37.554;2023-04-27T07:41:45;98576.44;;;22.30;33.83
31088;BME280;17745;55.914;37.554;2023-04-27T07:44:22;98578.00;;;22.31;33.26
31088;BME280;17745;55.914;37.554;2023-04-27T07:47:12;98581.75;;;22.26;33.33
31088;BME280;17745;55.914;37.554;2023-04-27T07:50:17;98587.75;;;22.19;33.15
31088;BME280;17745;55.914;37.554;2023-04-27T07:52:56;98585.81;;;22.20;33.18
31088;BME280;17745;55.914;37.554;2023-04-27T07:56:06;98584.19;;;22.31;32.99
31088;BME280;17745;55.914;37.554;2023-04-27T07:58:51;98583.66;;;22.41;32.80
31088;BME280;17745;55.914;37.554;2023-04-27T08:01:42;98585.78;;;22.48;32.37
31088;BME280;17745;55.914;37.554;2023-04-27T08:04:26;98584.88;;;22.44;32.56
31088;BME280;17745;55.914;37.554;2023-04-27T08:10:08;98592.03;;;22.52;32.38
31088;BME280;17745;55.914;37.554;2023-04-27T08:15:55;98594.22;;;22.79;32.11
31088;BME280;17745;55.914;37.554;2023-04-27T08:18:48;98588.88;;;22.98;31.83
31088;BME280;17745;55.914;37.554;2023-04-27T08:21:39;98586.94;;;23.15;31.75
31088;BME280;17745;55.914;37.554;2023-04-27T08:24:25;98588.66;;;23.23;31.68
31088;BME280;17745;55.914;37.554;2023-04-27T08:27:07;98591.56;;;23.31;31.63
31088;BME280;17745;55.914;37.554;2023-04-27T08:29:52;98586.66;;;23.36;31.38
31088;BME280;17745;55.914;37.554;2023-04-27T08:32:29;98591.06;;;23.45;31.38
31088;BME280;17745;55.914;37.554;2023-04-27T08:35:28;98580.69;;;23.47;30.82
31088;BME280;17745;55.914;37.554;2023-04-27T08:38:23;98583.53;;;23.54;31.00
31088;BME280;17745;55.914;37.554;2023-04-27T08:41:22;98580.56;;;23.59;30.75
31088;BME280;17745;55.914;37.554;2023-04-27T08:47:10;98570.63;;;23.63;30.58
31088;BME280;17745;55.914;37.554;2023-04-27T08:50:07;98583.28;;;23.59;30.48
31088;BME280;17745;55.914;37.554;2023-04-27T08:52:45;98579.84;;;23.62;29.92
31088;BME280;17745;55.914;37.554;2023-04-27T08:55:20;98579.06;;;23.62;29.47
31088;BME280;17745;55.914;37.554;2023-04-27T08:57:59;98575.28;;;23.47;29.79
31088;BME280;17745;55.914;37.554;2023-04-27T09:00:42;98581.41;;;23.44;29.85
31088;BME280;17745;55.914;37.554;2023-04-27T09:03:29;98573.03;;;23.49;29.61
31088;BME280;17745;55.914;37.554;2023-04-27T09:06:28;98578.22;;;23.58;29.54
31088;BME280;17745;55.914;37.554;2023-04-27T09:09:09;98580.19;;;23.80;29.42
31088;BME280;17745;55.914;37.554;2023-04-27T09:11:40;98578.63;;;23.99;29.61
31088;BME280;17745;55.914;37.554;2023-04-27T09:14:18;98574.00;;;24.19;29.39
31088;BME280;17745;55.914;37.554;2023-04-27T09:17:06;98581.09;;;24.27;28.84
31088;BME280;17745;55.914;37.554;2023-04-27T09:20:01;98570.81;;;24.13;28.83
31088;BME280;17745;55.914;37.554;2023-04-27T09:22:55;98567.16;;;24.25;28.65
31088;BME280;17745;55.914;37.554;2023-04-27T09:26:19;98572.41;;;24.18;27.77
31088;BME280;17745;55.914;37.554;2023-04-27T09:29:13;98580.28;;;24.27;28.17
31088;BME280;17745;55.914;37.554;2023-04-27T09:31:56;98572.06;;;24.43;28.10
31088;BME280;17745;55.914;37.554;2023-04-27T09:34:41;98579.25;;;24.59;27.98
31088;BME280;17745;55.914;37.554;2023-04-27T09:37:26;98570.19;;;24.70;27.78
31088;BME280;17745;55.914;37.554;2023-04-27T09:40:17;98568.66;;;24.73;27.92
31088;BME280;17745;55.914;37.554;2023-04-27T09:42:57;98563.56;;;24.68;27.53
31088;BME280;17745;55.914;37.554;2023-04-27T09:45:43;98572.91;;;24.47;27.97
31088;BME280;17745;55.914;37.554;2023-04-27T09:48:32;98570.31;;;24.54;28.11
31088;BME280;17745;55.914;37.554;2023-04-27T09:51:09;98563.84;;;24.82;28.07
31088;BME280;17745;55.914;37.554;2023-04-27T09:53:48;98573.69;;;24.98;28.02
31088;BME280;17745;55.914;37.554;2023-04-27T09:56:45;98565.47;;;24.91;28.32
31088;BME280;17745;55.914;37.554;2023-04-27T09:59:52;98570.41;;;24.85;28.50
31088;BME280;17745;55.914;37.554;2023-04-27T10:02:51;98571.06;;;25.02;28.51
31088;BME280;17745;55.914;37.554;2023-04-27T10:09:41;98561.75;;;25.30;28.57
31088;BME280;17745;55.914;37.554;2023-04-27T10:12:38;98564.91;;;25.66;28.48
31088;BME280;17745;55.914;37.554;2023-04-27T10:17:30;98562.44;;;25.84;27.83
31088;BME280;17745;55.914;37.554;2023-04-27T10:19:23;98549.84;;;26.06;27.77
31088;BME280;17745;55.914;37.554;2023-04-27T10:22:24;98554.63;;;26.65;27.20
31088;BME280;17745;55.914;37.554;2023-04-27T10:25:22;98544.66;;;26.84;26.78
31088;BME280;17745;55.914;37.554;2023-04-27T10:28:03;98551.78;;;27.00;26.38
31088;BME280;17745;55.914;37.554;2023-04-27T10:31:09;98551.78;;;27.03;26.06
31088;BME280;17745;55.914;37.554;2023-04-27T10:34:04;98549.41;;;26.91;25.93
31088;BME280;17745;55.914;37.554;2023-04-27T10:37:06;98550.09;;;26.84;25.99
31088;BME280;17745;55.914;37.554;2023-04-27T10:40:06;98554.59;;;27.18;25.90
31088;BME280;17745;55.914;37.554;2023-04-27T10:42:51;98543.41;;;27.30;25.43
31088;BME280;17745;55.914;37.554;2023-04-27T10:45:39;98552.59;;;27.11;25.44
31088;BME280;17745;55.914;37.554;2023-04-27T10:48:29;98551.84;;;27.10;25.40
31088;BME280;17745;55.914;37.554;2023-04-27T10:51:15;98547.56;;;27.13;25.56
31088;BME280;17745;55.914;37.554;2023-04-27T10:54:09;98546.03;;;27.16;25.37
31088;BME280;17745;55.914;37.554;2023-04-27T10:57:09;98542.12;;;27.09;25.52
31088;BME280;17745;55.914;37.554;2023-04-27T10:59:55;98546.34;;;27.03;25.03
31088;BME280;17745;55.914;37.554;2023-04-27T11:02:40;98540.97;;;27.14;25.16
31088;BME280;17745;55.914;37.554;2023-04-27T11:08:49;98543.78;;;27.32;24.83
31088;BME280;17745;55.914;37.554;2023-04-27T11:14:51;98546.50;;;26.65;25.19
31088;BME280;17745;55.914;37.554;2023-04-27T11:17:36;98548.31;;;26.50;25.29
31088;BME280;17745;55.914;37.554;2023-04-27T11:20:26;98548.19;;;26.36;25.62
31088;BME280;17745;55.914;37.554;2023-04-27T11:23:47;98537.13;;;27.19;25.00
31088;BME280;17745;55.914;37.554;2023-04-27T11:27:07;98551.78;;;28.97;23.32
31088;BME280;17745;55.914;37.554;2023-04-27T11:30:24;98548.13;;;29.51;22.50
31088;BME280;17745;55.914;37.554;2023-04-27T11:36:36;98557.53;;;31.40;21.01
31088;BME280;17745;55.914;37.554;2023-04-27T11:39:43;98556.31;;;32.27;19.42
31088;BME280;17745;55.914;37.554;2023-04-27T11:42:36;98560.91;;;32.09;19.45
31088;BME280;17745;55.914;37.554;2023-04-27T11:45:33;98541.34;;;31.84;19.39
31088;BME280;17745;55.914;37.554;2023-04-27T11:48:14;98551.81;;;30.92;19.97
31088;BME280;17745;55.914;37.554;2023-04-27T11:50:50;98558.50;;;29.74;21.16
31088;BME280;17745;55.914;37.554;2023-04-27T11:53:38;98549.78;;;30.05;21.04
31088;BME280;17745;55.914;37.554;2023-04-27T11:59:41;98557.44;;;30.74;20.57
31088;BME280;17745;55.914;37.554;2023-04-27T12:02:30;98555.25;;;31.34;20.45
31088;BME280;17745;55.914;37.554;2023-04-27T12:05:19;98556.47;;;31.61;20.03
31088;BME280;17745;55.914;37.554;2023-04-27T12:11:29;98553.41;;;30.40;21.20
31088;BME280;17745;55.914;37.554;2023-04-27T12:14:28;98542.28;;;29.38;22.33
31088;BME280;17745;55.914;37.554;2023-04-27T12:18:39;98566.81;;;29.52;22.30
31088;BME280;17745;55.914;37.554;2023-04-27T12:20:59;98553.22;;;30.16;21.77
31088;BME280;17745;55.914;37.554;2023-04-27T12:23:44;98570.44;;;30.06;21.83
31088;BME280;17745;55.914;37.554;2023-04-27T12:26:53;98559.44;;;30.66;21.52
31088;BME280;17745;55.914;37.554;2023-04-27T12:29:48;98573.22;;;30.97;21.04
31088;BME280;17745;55.914;37.554;2023-04-27T12:33:12;98572.44;;;30.51;21.21
31088;BME280;17745;55.914;37.554;2023-04-27T12:36:06;98552.47;;;31.00;20.93
31088;BME280;17745;55.914;37.554;2023-04-27T12:38:59;98557.66;;;31.29;20.57
31088;BME280;17745;55.914;37.554;2023-04-27T12:42:02;98553.66;;;31.37;20.60
31088;BME280;17745;55.914;37.554;2023-04-27T12:44:59;98545.25;;;31.83;20.30
31088;BME280;17745;55.914;37.554;2023-04-27T12:47:48;98554.00;;;32.73;19.74
31088;BME280;17745;55.914;37.554;2023-04-27T12:50:45;98552.37;;;32.75;19.43
31088;BME280;17745;55.914;37.554;2023-04-27T12:53:34;98562.66;;;32.47;19.66
31088;BME280;17745;55.914;37.554;2023-04-27T12:56:19;98563.00;;;32.49;19.52
31088;BME280;17745;55.914;37.554;2023-04-27T12:59:01;98549.91;;;32.61;19.34
31088;BME280;17745;55.914;37.554;2023-04-27T13:02:15;98537.81;;;33.02;18.89
31088;BME280;17745;55.914;37.554;2023-04-27T13:06:20;98539.63;;;32.89;19.16
31088;BME280;17745;55.914;37.554;2023-04-27T13:09:38;98541.62;;;31.89;19.61
31088;BME280;17745;55.914;37.554;2023-04-27T13:12:57;98536.59;;;31.57;19.81
31088;BME280;17745;55.914;37.554;2023-04-27T17:27:54;98632.59;;;20.71;32.40
31088;BME280;17745;55.914;37.554;2023-04-27T17:34:39;98639.31;;;20.52;32.80
31088;BME280;17745;55.914;37.554;2023-04-27T17:37:47;98642.41;;;20.42;33.04
31088;BME280;17745;55.914;37.554;2023-04-27T17:40:41;98643.75;;;20.36;33.22
31088;BME280;17745;55.914;37.554;2023-04-27T17:44:04;98641.16;;;20.27;33.28
31088;BME280;17745;55.914;37.554;2023-04-27T17:46:52;98648.62;;;20.21;33.63
31088;BME280;17745;55.914;37.554;2023-04-27T17:50:26;98641.31;;;20.09;33.62
31088;BME280;17745;55.914;37.554;2023-04-27T17:53:22;98651.91;;;20.06;33.90
31088;BME280;17745;55.914;37.554;2023-04-27T17:56:34;98647.56;;;20.01;34.19
31088;BME280;17745;55.914;37.554;2023-04-27T18:38:29;98645.50;;;19.25;36.02
31088;BME280;17745;55.914;37.554;2023-04-27T18:41:32;98637.16;;;19.18;36.23
31088;BME280;17745;55.914;37.554;2023-04-27T18:44:49;98636.56;;;19.12;36.27
31088;BME280;17745;55.914;37.554;2023-04-27T18:47:50;98637.53;;;19.08;36.36
31088;BME280;17745;55.914;37.554;2023-04-27T18:50:56;98638.50;;;19.03;36.46
31088;BME280;17745;55.914;37.554;2023-04-27T18:54:17;98634.88;;;18.99;36.54
31088;BME280;17745;55.914;37.554;2023-04-27T18:57:11;98638.19;;;18.96;36.93
31088;BME280;17745;55.914;37.554;2023-04-27T19:00:18;98633.00;;;18.91;36.88
31088;BME280;17745;55.914;37.554;2023-04-27T19:03:40;98628.75;;;18.90;37.03
31088;BME280;17745;55.914;37.554;2023-04-27T19:07:09;98643.28;;;18.89;37.21
31088;BME280;17745;55.914;37.554;2023-04-27T19:20:29;98629.47;;;18.69;37.52
31088;BME280;17745;55.914;37.554;2023-04-27T19:23:38;98627.56;;;18.61;37.74
31088;BME280;17745;55.914;37.554;2023-04-27T19:30:56;98629.63;;;18.55;38.14
31088;BME280;17745;55.914;37.554;2023-04-27T19:34:03;98629.34;;;18.48;38.23
31088;BME280;17745;55.914;37.554;2023-04-27T19:37:17;98619.28;;;18.45;38.34
31088;BME280;17745;55.914;37.554;2023-04-27T19:44:21;98624.19;;;18.34;38.80
31088;BME280;17745;55.914;37.554;2023-04-27T19:51:22;98622.00;;;18.18;39.12
31088;BME280;17745;55.914;37.554;2023-04-27T20:03:29;98619.94;;;17.97;39.51
31088;BME280;17745;55.914;37.554;2023-04-27T20:06:56;98619.94;;;17.89;39.59
31088;BME280;17745;55.914;37.554;2023-04-27T20:09:28;98624.66;;;17.83;39.77
31088;BME280;17745;55.914;37.554;2023-04-27T20:12:40;98624.03;;;17.77;39.87
31088;BME280;17745;55.914;37.554;2023-04-27T20:15:27;98630.81;;;17.75;39.91
31088;BME280;17745;55.914;37.554;2023-04-27T20:18:23;98628.28;;;17.69;40.02
31088;BME280;17745;55.914;37.554;2023-04-27T20:21:25;98627.34;;;17.65;40.39
31088;BME280;17745;55.914;37.554;2023-04-27T20:24:27;98629.37;;;17.60;40.48
31088;BME280;17745;55.914;37.554;2023-04-27T20:27:28;98624.16;;;17.54;40.70
31088;BME280;17745;55.914;37.554;2023-04-27T20:34:39;98629.34;;;17.42;40.96
31088;BME280;17745;55.914;37.554;2023-04-27T20:38:22;98628.53;;;17.33;40.96
31088;BME280;17745;55.914;37.554;2023-04-27T20:41:36;98632.94;;;17.28;41.28
31088;BME280;17745;55.914;37.554;2023-04-27T20:44:41;98624.75;;;17.25;41.46
31088;BME280;17745;55.914;37.554;2023-04-27T20:47:57;98617.97;;;17.19;41.35
31088;BME280;17745;55.914;37.554;2023-04-27T20:51:05;98626.59;;;17.15;41.82
31088;BME280;17745;55.914;37.554;2023-04-27T20:54:06;98620.31;;;17.11;41.89
31088;BME280;17745;55.914;37.554;2023-04-27T20:57:09;98612.91;;;17.08;42.06
31088;BME280;17745;55.914;37.554;2023-04-27T20:59:58;98616.97;;;17.06;42.00
31088;BME280;17745;55.914;37.554;2023-04-27T21:02:35;98619.97;;;17.04;42.16
31088;BME280;17745;55.914;37.554;2023-04-27T21:05:22;98614.75;;;16.99;42.25
31088;BME280;17745;55.914;37.554;2023-04-27T21:08:05;98614.25;;;16.97;42.36
31088;BME280;17745;55.914;37.554;2023-04-27T21:11:02;98614.25;;;16.97;42.58
31088;BME280;17745;55.914;37.554;2023-04-27T21:14:21;98610.00;;;16.96;42.72
31088;BME280;17745;55.914;37.554;2023-04-27T21:17:22;98613.47;;;16.96;42.81